createdAt,value
2022-10-31T00:00:35.826Z,22.47
2022-10-31T00:01:36.463Z,22.44
2022-10-31T00:02:37.149Z,22.45
2022-10-31T00:03:37.800Z,22.43
2022-10-31T00:04:38.399Z,22.57
2022-10-31T00:05:39.012Z,22.45
2022-10-31T00:06:39.601Z,22.48
2022-10-31T00:07:40.205Z,22.47
2022-10-31T00:08:40.809Z,22.43
2022-10-31T00:09:41.467Z,22.36
2022-10-31T00:10:42.080Z,22.43
2022-10-31T00:11:42.676Z,22.36
2022-10-31T00:12:43.424Z,22.41
2022-10-31T00:13:44.104Z,22.38
2022-10-31T00:14:44.676Z,22.36
2022-10-31T00:15:45.280Z,22.43
2022-10-31T00:16:45.976Z,22.44
2022-10-31T00:17:46.578Z,22.45
2022-10-31T00:18:47.243Z,22.43
2022-10-31T00:19:47.840Z,22.47
2022-10-31T00:20:48.438Z,22.41
2022-10-31T00:21:49.037Z,22.44
2022-10-31T00:22:49.638Z,22.43
2022-10-31T00:23:50.240Z,22.44
2022-10-31T00:24:50.883Z,22.48
2022-10-31T00:25:51.612Z,22.43
2022-10-31T00:26:52.210Z,22.36
2022-10-31T00:27:52.857Z,22.38
2022-10-31T00:28:53.551Z,22.45
2022-10-31T00:29:54.202Z,22.45
2022-10-31T00:30:55.651Z,22.39
2022-10-31T00:31:56.251Z,22.43
2022-10-31T00:32:57.129Z,22.44
2022-10-31T00:33:58.745Z,22.43
2022-10-31T00:34:59.394Z,22.38
2022-10-31T00:36:00.045Z,22.43
2022-10-31T00:37:00.647Z,22.45
2022-10-31T00:38:01.244Z,22.39
2022-10-31T00:39:01.843Z,22.38
2022-10-31T00:40:02.445Z,22.41
2022-10-31T00:41:03.050Z,22.35
2022-10-31T00:42:03.645Z,22.36
2022-10-31T00:43:04.738Z,22.41
2022-10-31T00:44:05.559Z,22.33
2022-10-31T00:45:06.161Z,22.43
2022-10-31T00:46:06.762Z,22.36
2022-10-31T00:47:07.355Z,22.35
2022-10-31T00:48:07.957Z,22.39
2022-10-31T00:49:08.553Z,22.35
2022-10-31T00:50:09.151Z,22.38
2022-10-31T00:51:09.749Z,22.36
2022-10-31T00:52:10.346Z,22.33
2022-10-31T00:53:10.949Z,22.36
2022-10-31T00:54:11.545Z,22.41
2022-10-31T00:55:12.141Z,22.33
2022-10-31T00:56:12.745Z,22.36
2022-10-31T00:57:13.340Z,22.43
2022-10-31T00:59:15.461Z,22.26
2022-10-31T01:00:16.066Z,22.32
2022-10-31T01:01:16.832Z,22.32
2022-10-31T01:02:17.591Z,22.29
2022-10-31T01:03:18.233Z,22.41
2022-10-31T01:04:18.834Z,22.28
2022-10-31T01:05:19.431Z,22.33
2022-10-31T01:06:20.101Z,22.26
2022-10-31T01:07:20.705Z,22.26
2022-10-31T01:08:21.319Z,22.25
2022-10-31T01:09:21.907Z,22.22
2022-10-31T01:10:22.512Z,22.26
2022-10-31T01:11:23.110Z,22.29
2022-10-31T01:12:23.777Z,22.33
2022-10-31T01:13:24.379Z,22.32
2022-10-31T01:14:24.979Z,22.25
2022-10-31T01:15:25.580Z,22.26
2022-10-31T01:16:26.182Z,22.30
2022-10-31T01:17:26.786Z,22.26
2022-10-31T01:18:27.383Z,22.32
2022-10-31T01:19:27.984Z,22.33
2022-10-31T01:20:28.584Z,22.30
2022-10-31T01:21:29.184Z,22.30
2022-10-31T01:22:29.783Z,22.30
2022-10-31T01:23:30.381Z,22.26
2022-10-31T01:24:30.983Z,22.22
2022-10-31T01:25:31.580Z,22.28
2022-10-31T01:26:32.248Z,22.28
2022-10-31T01:27:32.907Z,22.26
2022-10-31T01:28:33.506Z,22.22
2022-10-31T01:29:34.103Z,22.26
2022-10-31T01:30:34.697Z,22.26
2022-10-31T01:31:35.302Z,22.28
2022-10-31T01:32:35.898Z,22.23
2022-10-31T01:33:37.349Z,22.23
2022-10-31T01:34:38.017Z,22.25
2022-10-31T01:35:38.616Z,22.28
2022-10-31T01:36:39.366Z,22.25
2022-10-31T01:37:39.968Z,22.26
2022-10-31T01:38:40.569Z,22.23
2022-10-31T01:39:41.166Z,22.22
2022-10-31T01:40:41.820Z,22.23
2022-10-31T01:41:42.417Z,22.23
2022-10-31T01:42:43.018Z,22.20
2022-10-31T01:43:43.669Z,22.23
2022-10-31T01:44:45.116Z,22.22
2022-10-31T01:45:45.720Z,22.26
2022-10-31T01:46:46.321Z,22.32
2022-10-31T01:47:46.925Z,22.25
2022-10-31T01:48:47.576Z,22.28
2022-10-31T01:49:48.177Z,22.23
2022-10-31T01:50:48.775Z,22.23
2022-10-31T01:51:49.373Z,22.25
2022-10-31T01:52:49.975Z,22.22
2022-10-31T01:53:50.570Z,22.23
2022-10-31T01:54:51.168Z,22.25
2022-10-31T01:55:51.766Z,22.23
2022-10-31T01:56:52.411Z,22.23
2022-10-31T01:57:53.007Z,22.25
2022-10-31T01:58:53.605Z,22.23
2022-10-31T01:59:54.265Z,22.23
2022-10-31T02:00:54.935Z,22.18
2022-10-31T02:01:55.691Z,22.22
2022-10-31T02:02:56.579Z,22.25
2022-10-31T02:03:57.290Z,22.15
2022-10-31T02:04:57.890Z,22.25
2022-10-31T02:05:58.486Z,22.22
2022-10-31T02:06:59.087Z,22.15
2022-10-31T02:07:59.691Z,22.13
2022-10-31T02:09:00.295Z,22.22
2022-10-31T02:10:00.895Z,22.14
2022-10-31T02:11:01.498Z,22.14
2022-10-31T02:12:02.102Z,22.22
2022-10-31T02:13:03.104Z,22.14
2022-10-31T02:14:03.981Z,22.14
2022-10-31T02:15:04.581Z,22.23
2022-10-31T02:16:05.181Z,22.10
2022-10-31T02:17:05.781Z,22.17
2022-10-31T02:18:06.379Z,22.22
2022-10-31T02:19:06.981Z,22.14
2022-10-31T02:20:07.580Z,22.14
2022-10-31T02:21:08.177Z,22.20
2022-10-31T02:22:08.778Z,22.14
2022-10-31T02:23:09.373Z,22.17
2022-10-31T02:24:09.974Z,22.15
2022-10-31T02:25:10.564Z,22.15
2022-10-31T02:26:11.161Z,22.17
2022-10-31T02:27:11.759Z,22.14
2022-10-31T02:28:12.404Z,22.15
2022-10-31T02:29:12.995Z,22.18
2022-10-31T02:30:13.597Z,22.11
2022-10-31T02:31:14.188Z,22.13
2022-10-31T02:32:14.788Z,22.18
2022-10-31T02:33:15.389Z,22.13
2022-10-31T02:34:15.984Z,22.08
2022-10-31T02:35:16.579Z,22.14
2022-10-31T02:36:17.174Z,22.20
2022-10-31T02:37:17.774Z,22.22
2022-10-31T02:38:18.368Z,22.20
2022-10-31T02:39:18.967Z,22.22
2022-10-31T02:40:19.570Z,22.07
2022-10-31T02:41:20.175Z,22.20
2022-10-31T02:42:20.826Z,22.18
2022-10-31T02:43:21.578Z,22.15
2022-10-31T02:44:22.179Z,22.14
2022-10-31T02:45:22.828Z,22.13
2022-10-31T02:46:23.475Z,22.11
2022-10-31T02:47:24.079Z,22.15
2022-10-31T02:48:24.676Z,22.10
2022-10-31T02:49:25.329Z,22.17
2022-10-31T02:50:25.931Z,22.17
2022-10-31T02:51:26.540Z,22.17
2022-10-31T02:52:27.141Z,22.10
2022-10-31T02:53:27.743Z,22.13
2022-10-31T02:54:28.343Z,22.10
2022-10-31T02:55:29.045Z,22.20
2022-10-31T02:56:29.644Z,22.10
2022-10-31T02:57:30.246Z,22.11
2022-10-31T02:58:30.845Z,22.18
2022-10-31T02:59:31.448Z,22.13
2022-10-31T03:00:32.056Z,22.13
2022-10-31T03:01:32.716Z,22.14
2022-10-31T03:02:33.455Z,22.17
2022-10-31T03:03:34.129Z,22.14
2022-10-31T03:04:34.720Z,22.13
2022-10-31T03:05:35.325Z,22.15
2022-10-31T03:06:35.919Z,22.22
2022-10-31T03:07:36.524Z,22.14
2022-10-31T03:08:37.128Z,22.18
2022-10-31T03:09:37.737Z,22.15
2022-10-31T03:10:38.330Z,22.11
2022-10-31T03:11:38.930Z,22.15
2022-10-31T03:12:42.045Z,22.14
2022-10-31T03:13:41.126Z,22.17
2022-10-31T03:14:41.719Z,22.13
2022-10-31T03:15:42.320Z,22.15
2022-10-31T03:16:42.920Z,22.07
2022-10-31T03:17:43.521Z,22.13
2022-10-31T03:18:44.117Z,22.11
2022-10-31T03:19:44.722Z,22.15
2022-10-31T03:20:45.317Z,22.13
2022-10-31T03:21:45.914Z,22.14
2022-10-31T03:22:46.511Z,22.14
2022-10-31T03:23:47.113Z,22.14
2022-10-31T03:24:47.708Z,22.17
2022-10-31T03:25:48.304Z,22.15
2022-10-31T03:26:48.904Z,22.11
2022-10-31T03:27:49.509Z,22.15
2022-10-31T03:28:50.911Z,22.11
2022-10-31T03:29:51.512Z,22.11
2022-10-31T03:30:52.113Z,22.15
2022-10-31T03:31:52.716Z,22.08
2022-10-31T03:32:53.314Z,22.15
2022-10-31T03:33:53.917Z,22.18
2022-10-31T03:34:54.518Z,22.08
2022-10-31T03:35:55.120Z,22.18
2022-10-31T03:36:55.719Z,22.17
2022-10-31T03:37:56.326Z,22.11
2022-10-31T03:38:56.919Z,22.10
2022-10-31T03:39:57.528Z,22.14
2022-10-31T03:40:58.116Z,22.15
2022-10-31T03:41:58.720Z,22.11
2022-10-31T03:42:59.745Z,22.14
2022-10-31T03:44:00.534Z,22.15
2022-10-31T03:45:01.187Z,22.13
2022-10-31T03:46:01.780Z,22.14
2022-10-31T03:47:02.376Z,22.13
2022-10-31T03:48:04.084Z,22.00
2022-10-31T03:49:04.705Z,22.13
2022-10-31T03:50:05.350Z,22.13
2022-10-31T03:51:06.004Z,22.10
2022-10-31T03:52:06.660Z,22.06
2022-10-31T03:53:07.260Z,22.14
2022-10-31T03:54:07.912Z,22.11
2022-10-31T03:55:08.514Z,21.99
2022-10-31T03:56:09.617Z,22.10
2022-10-31T03:57:10.217Z,22.11
2022-10-31T03:58:10.874Z,22.02
2022-10-31T03:59:11.531Z,22.10
2022-10-31T04:00:12.128Z,22.07
2022-10-31T04:01:12.856Z,22.08
2022-10-31T04:02:13.588Z,22.06
2022-10-31T04:03:14.265Z,22.06
2022-10-31T04:04:14.870Z,22.11
2022-10-31T04:05:15.472Z,22.11
2022-10-31T04:06:16.077Z,22.10
2022-10-31T04:07:16.675Z,22.11
2022-10-31T04:08:17.276Z,22.10
2022-10-31T04:09:17.874Z,22.08
2022-10-31T04:10:18.474Z,22.17
2022-10-31T04:11:19.073Z,22.06
2022-10-31T04:12:19.674Z,22.02
2022-10-31T04:13:20.287Z,22.02
2022-10-31T04:14:20.882Z,22.08
2022-10-31T04:15:21.482Z,22.02
2022-10-31T04:16:22.085Z,22.06
2022-10-31T04:17:22.678Z,22.00
2022-10-31T04:18:23.275Z,22.02
2022-10-31T04:19:23.869Z,22.02
2022-10-31T04:20:24.470Z,21.98
2022-10-31T04:21:25.069Z,22.06
2022-10-31T04:22:25.671Z,22.02
2022-10-31T04:23:26.268Z,22.10
2022-10-31T04:24:26.867Z,22.02
2022-10-31T04:25:28.264Z,22.08
2022-10-31T04:26:28.866Z,22.04
2022-10-31T04:27:29.525Z,22.02
2022-10-31T04:28:30.127Z,22.11
2022-10-31T04:29:30.787Z,22.07
2022-10-31T04:30:31.391Z,22.04
2022-10-31T04:31:32.052Z,22.10
2022-10-31T04:32:32.656Z,22.04
2022-10-31T04:33:33.250Z,22.10
2022-10-31T04:34:33.851Z,22.07
2022-10-31T04:35:34.453Z,22.10
2022-10-31T04:36:35.056Z,22.07
2022-10-31T04:37:35.668Z,22.02
2022-10-31T04:38:36.256Z,22.10
2022-10-31T04:39:36.860Z,22.07
2022-10-31T04:40:37.460Z,22.08
2022-10-31T04:41:38.065Z,22.04
2022-10-31T04:42:38.666Z,22.11
2022-10-31T04:43:39.270Z,22.07
2022-10-31T04:44:39.871Z,22.07
2022-10-31T04:45:40.477Z,22.04
2022-10-31T04:46:41.073Z,22.07
2022-10-31T04:47:41.676Z,22.11
2022-10-31T04:48:42.422Z,22.04
2022-10-31T04:49:43.022Z,22.06
2022-10-31T04:50:43.627Z,22.08
2022-10-31T04:51:44.293Z,22.02
2022-10-31T04:52:44.891Z,22.07
2022-10-31T04:53:45.539Z,22.04
2022-10-31T04:54:46.138Z,22.02
2022-10-31T04:55:46.734Z,22.02
2022-10-31T04:56:47.330Z,22.07
2022-10-31T04:57:48.080Z,22.06
2022-10-31T04:58:48.676Z,22.10
2022-10-31T04:59:49.324Z,22.04
2022-10-31T05:00:49.967Z,21.95
2022-10-31T05:01:50.720Z,22.07
2022-10-31T05:02:51.404Z,21.95
2022-10-31T05:03:51.995Z,22.07
2022-10-31T05:04:52.597Z,22.10
2022-10-31T05:05:54.048Z,22.00
2022-10-31T05:06:54.648Z,22.10
2022-10-31T05:07:55.249Z,22.04
2022-10-31T05:08:55.848Z,22.07
2022-10-31T05:09:56.447Z,22.10
2022-10-31T05:11:01.624Z,22.07
2022-10-31T05:11:58.641Z,22.08
2022-10-31T05:12:59.849Z,22.07
2022-10-31T05:14:00.780Z,22.07
2022-10-31T05:15:01.377Z,22.07
2022-10-31T05:16:01.980Z,22.06
2022-10-31T05:17:02.578Z,22.07
2022-10-31T05:18:03.709Z,21.99
2022-10-31T05:19:03.896Z,22.08
2022-10-31T05:20:04.496Z,22.07
2022-10-31T05:21:05.095Z,22.07
2022-10-31T05:22:05.692Z,22.10
2022-10-31T05:23:06.290Z,22.06
2022-10-31T05:24:06.885Z,22.08
2022-10-31T05:25:07.485Z,22.08
2022-10-31T05:26:08.085Z,22.06
2022-10-31T05:27:08.679Z,22.10
2022-10-31T05:28:09.292Z,22.08
2022-10-31T05:29:09.878Z,22.07
2022-10-31T05:30:10.477Z,22.06
2022-10-31T05:31:11.098Z,22.07
2022-10-31T05:32:11.688Z,22.07
2022-10-31T05:33:12.291Z,22.02
2022-10-31T05:34:12.892Z,22.02
2022-10-31T05:35:13.558Z,22.04
2022-10-31T05:36:14.155Z,22.07
2022-10-31T05:37:14.758Z,22.07
2022-10-31T05:38:15.360Z,22.06
2022-10-31T05:39:15.960Z,22.06
2022-10-31T05:40:16.562Z,22.04
2022-10-31T05:41:17.161Z,22.08
2022-10-31T05:42:17.760Z,22.07
2022-10-31T05:43:18.362Z,22.07
2022-10-31T05:44:18.962Z,22.02
2022-10-31T05:45:19.564Z,22.07
2022-10-31T05:46:20.197Z,22.04
2022-10-31T05:47:20.818Z,22.06
2022-10-31T05:48:21.418Z,22.02
2022-10-31T05:49:22.016Z,22.00
2022-10-31T05:50:22.616Z,22.04
2022-10-31T05:51:23.267Z,22.08
2022-10-31T05:52:23.867Z,22.02
2022-10-31T05:53:24.464Z,22.00
2022-10-31T05:54:25.112Z,22.04
2022-10-31T05:55:25.709Z,22.07
2022-10-31T05:56:26.307Z,22.07
2022-10-31T05:57:26.900Z,22.06
2022-10-31T05:58:27.594Z,22.04
2022-10-31T05:59:28.193Z,22.02
2022-10-31T06:00:28.794Z,22.06
2022-10-31T06:01:29.479Z,22.06
2022-10-31T06:02:30.127Z,22.04
2022-10-31T06:03:30.780Z,22.04
2022-10-31T06:04:31.417Z,21.99
2022-10-31T06:05:32.020Z,22.04
2022-10-31T06:06:32.619Z,22.07
2022-10-31T06:07:33.239Z,21.98
2022-10-31T06:08:33.842Z,22.04
2022-10-31T06:09:35.291Z,22.00
2022-10-31T06:10:35.899Z,21.99
2022-10-31T06:11:36.485Z,21.99
2022-10-31T06:12:37.081Z,21.98
2022-10-31T06:13:37.683Z,21.89
2022-10-31T06:14:38.285Z,21.99
2022-10-31T06:15:38.882Z,21.99
2022-10-31T06:16:39.482Z,21.98
2022-10-31T06:17:40.085Z,21.98
2022-10-31T06:18:40.683Z,21.99
2022-10-31T06:19:41.334Z,22.00
2022-10-31T06:20:41.945Z,21.99
2022-10-31T06:21:42.539Z,21.93
2022-10-31T06:22:43.191Z,21.98
2022-10-31T06:23:43.791Z,21.99
2022-10-31T06:24:44.391Z,21.95
2022-10-31T06:25:44.992Z,21.96
2022-10-31T06:26:45.589Z,21.98
2022-10-31T06:27:46.187Z,21.98
2022-10-31T06:28:46.787Z,21.96
2022-10-31T06:29:47.383Z,21.98
2022-10-31T06:30:48.031Z,21.89
2022-10-31T06:31:48.678Z,21.96
2022-10-31T06:32:49.280Z,22.02
2022-10-31T06:33:50.326Z,21.96
2022-10-31T06:34:50.907Z,21.83
2022-10-31T06:35:51.551Z,21.95
2022-10-31T06:36:52.297Z,21.98
2022-10-31T06:37:52.950Z,21.92
2022-10-31T06:38:53.545Z,22.00
2022-10-31T06:39:54.146Z,21.92
2022-10-31T06:40:54.746Z,21.91
2022-10-31T06:41:55.347Z,22.00
2022-10-31T06:42:55.950Z,21.96
2022-10-31T06:43:56.552Z,21.95
2022-10-31T06:44:57.150Z,21.92
2022-10-31T06:45:57.747Z,21.91
2022-10-31T06:46:58.354Z,21.92
2022-10-31T06:48:22.574Z,21.93
2022-10-31T06:49:00.539Z,21.89
2022-10-31T06:50:01.132Z,21.96
2022-10-31T06:51:01.732Z,21.91
2022-10-31T06:52:02.332Z,21.91
2022-10-31T06:53:03.768Z,21.92
2022-10-31T06:54:04.363Z,21.93
2022-10-31T06:55:04.970Z,21.93
2022-10-31T06:56:05.564Z,22.02
2022-10-31T06:57:06.157Z,21.98
2022-10-31T06:58:07.054Z,21.93
2022-10-31T06:59:07.778Z,22.02
2022-10-31T07:00:08.373Z,21.93
2022-10-31T07:01:09.081Z,21.92
2022-10-31T07:02:09.807Z,21.99
2022-10-31T07:03:10.522Z,21.92
2022-10-31T07:04:11.135Z,21.91
2022-10-31T07:05:11.770Z,21.89
2022-10-31T07:06:12.366Z,21.95
2022-10-31T07:07:12.969Z,21.89
2022-10-31T07:08:13.563Z,21.92
2022-10-31T07:09:14.182Z,22.06
2022-10-31T07:10:14.825Z,21.93
2022-10-31T07:11:15.421Z,21.91
2022-10-31T07:12:16.072Z,22.02
2022-10-31T07:13:16.680Z,21.91
2022-10-31T07:14:17.273Z,21.91
2022-10-31T07:15:17.871Z,21.91
2022-10-31T07:16:18.472Z,21.99
2022-10-31T07:17:19.067Z,21.93
2022-10-31T07:18:19.670Z,21.95
2022-10-31T07:19:20.264Z,21.96
2022-10-31T07:20:20.863Z,21.92
2022-10-31T07:21:21.464Z,21.98
2022-10-31T07:22:22.062Z,21.96
2022-10-31T07:23:22.657Z,21.99
2022-10-31T07:24:23.254Z,21.89
2022-10-31T07:25:23.855Z,21.92
2022-10-31T07:26:24.456Z,22.00
2022-10-31T07:27:25.058Z,22.06
2022-10-31T07:28:25.657Z,22.00
2022-10-31T07:29:26.318Z,21.91
2022-10-31T07:30:26.981Z,21.91
2022-10-31T07:31:27.682Z,21.87
2022-10-31T07:32:28.282Z,22.00
2022-10-31T07:33:28.882Z,21.95
2022-10-31T07:34:29.479Z,21.99
2022-10-31T07:35:30.091Z,21.98
2022-10-31T07:36:30.677Z,21.98
2022-10-31T07:37:31.271Z,21.92
2022-10-31T07:38:31.989Z,21.91
2022-10-31T07:39:33.439Z,21.87
2022-10-31T07:40:34.038Z,21.93
2022-10-31T07:41:35.509Z,21.89
2022-10-31T07:42:36.131Z,21.93
2022-10-31T07:43:36.729Z,21.89
2022-10-31T07:44:37.398Z,21.87
2022-10-31T07:45:38.000Z,21.89
2022-10-31T07:46:38.602Z,21.92
2022-10-31T07:47:39.349Z,21.89
2022-10-31T07:48:39.949Z,21.87
2022-10-31T07:49:40.543Z,21.92
2022-10-31T07:50:41.147Z,21.87
2022-10-31T07:51:46.344Z,21.87
2022-10-31T07:52:43.336Z,21.93
2022-10-31T07:53:43.933Z,21.91
2022-10-31T07:54:44.531Z,21.85
2022-10-31T07:55:45.126Z,21.89
2022-10-31T07:56:45.724Z,21.92
2022-10-31T07:57:46.323Z,21.87
2022-10-31T07:58:46.917Z,21.89
2022-10-31T07:59:47.512Z,21.91
2022-10-31T08:00:48.187Z,21.89
2022-10-31T08:01:48.762Z,21.91
2022-10-31T08:02:49.365Z,21.95
2022-10-31T08:03:49.961Z,21.87
2022-10-31T08:04:50.564Z,21.89
2022-10-31T08:05:51.163Z,21.85
2022-10-31T08:06:51.762Z,21.85
2022-10-31T08:07:52.365Z,21.93
2022-10-31T08:08:52.965Z,21.92
2022-10-31T08:09:53.562Z,21.89
2022-10-31T08:10:54.159Z,21.89
2022-10-31T08:11:54.757Z,21.85
2022-10-31T08:12:55.356Z,21.89
2022-10-31T08:13:55.955Z,21.89
2022-10-31T08:14:56.557Z,21.92
2022-10-31T08:15:57.158Z,21.91
2022-10-31T08:16:57.756Z,21.85
2022-10-31T08:17:58.770Z,21.89
2022-10-31T08:18:59.520Z,21.93
2022-10-31T08:20:00.128Z,21.89
2022-10-31T08:21:00.717Z,21.96
2022-10-31T08:22:01.311Z,21.89
2022-10-31T08:23:01.913Z,21.91
2022-10-31T08:24:02.574Z,21.89
2022-10-31T08:25:03.175Z,21.93
2022-10-31T08:26:03.770Z,21.87
2022-10-31T08:27:04.371Z,21.91
2022-10-31T08:28:05.034Z,21.91
2022-10-31T08:29:05.628Z,21.96
2022-10-31T08:30:06.227Z,21.93
2022-10-31T08:31:06.821Z,21.87
2022-10-31T08:32:07.419Z,21.89
2022-10-31T08:33:08.021Z,21.93
2022-10-31T08:34:08.619Z,21.89
2022-10-31T08:35:09.222Z,21.85
2022-10-31T08:36:09.825Z,21.87
2022-10-31T08:37:10.487Z,21.91
2022-10-31T08:38:11.085Z,21.89
2022-10-31T08:39:11.685Z,21.91
2022-10-31T08:40:12.286Z,21.87
2022-10-31T08:41:12.886Z,21.92
2022-10-31T08:42:13.486Z,21.89
2022-10-31T08:43:14.138Z,21.91
2022-10-31T08:44:14.799Z,21.89
2022-10-31T08:45:15.410Z,21.89
2022-10-31T08:46:16.145Z,21.92
2022-10-31T08:47:16.754Z,21.92
2022-10-31T08:48:17.407Z,21.91
2022-10-31T08:49:18.002Z,21.91
2022-10-31T08:50:18.608Z,21.87
2022-10-31T08:51:19.249Z,21.89
2022-10-31T08:52:21.534Z,21.91
2022-10-31T08:53:21.435Z,21.89
2022-10-31T08:54:22.033Z,21.91
2022-10-31T08:55:22.634Z,21.92
2022-10-31T08:56:23.236Z,21.91
2022-10-31T08:57:23.902Z,21.87
2022-10-31T08:58:24.496Z,21.95
2022-10-31T08:59:25.096Z,21.89
2022-10-31T09:00:25.845Z,21.89
2022-10-31T09:01:26.552Z,21.92
2022-10-31T09:02:27.297Z,21.87
2022-10-31T09:03:27.951Z,21.91
2022-10-31T09:04:28.549Z,21.87
2022-10-31T09:05:29.149Z,21.92
2022-10-31T09:06:29.766Z,21.89
2022-10-31T09:07:30.347Z,21.85
2022-10-31T09:08:31.015Z,21.93
2022-10-31T09:09:31.612Z,21.89
2022-10-31T09:10:32.221Z,21.92
2022-10-31T09:11:32.877Z,21.91
2022-10-31T09:12:33.477Z,21.89
2022-10-31T09:13:38.727Z,21.85
2022-10-31T09:14:35.675Z,21.93
2022-10-31T09:15:36.273Z,21.85
2022-10-31T09:16:36.876Z,21.89
2022-10-31T09:17:37.478Z,21.82
2022-10-31T09:18:38.081Z,21.85
2022-10-31T09:19:38.684Z,21.93
2022-10-31T09:20:39.278Z,21.92
2022-10-31T09:21:39.881Z,21.89
2022-10-31T09:22:40.483Z,21.85
2022-10-31T09:23:41.083Z,21.89
2022-10-31T09:24:41.687Z,21.87
2022-10-31T09:25:46.141Z,21.89
2022-10-31T09:26:43.945Z,21.83
2022-10-31T09:27:44.543Z,21.85
2022-10-31T09:28:45.140Z,21.99
2022-10-31T09:29:45.741Z,21.89
2022-10-31T09:30:46.343Z,21.87
2022-10-31T09:31:46.943Z,21.89
2022-10-31T09:32:47.543Z,21.89
2022-10-31T09:33:48.145Z,21.92
2022-10-31T09:34:48.745Z,21.92
2022-10-31T09:35:49.345Z,21.87
2022-10-31T09:36:49.949Z,21.87
2022-10-31T09:37:50.547Z,21.92
2022-10-31T09:38:51.148Z,21.89
2022-10-31T09:39:51.745Z,21.92
2022-10-31T09:40:52.344Z,21.93
2022-10-31T09:41:56.272Z,21.85
2022-10-31T09:42:54.532Z,21.92
2022-10-31T09:43:55.133Z,21.89
2022-10-31T09:44:55.780Z,21.91
2022-10-31T09:45:57.241Z,21.89
2022-10-31T09:46:57.829Z,21.93
2022-10-31T09:47:58.658Z,21.92
2022-10-31T09:48:59.494Z,21.89
2022-10-31T09:50:00.965Z,21.89
2022-10-31T09:51:01.579Z,21.89
2022-10-31T09:52:02.213Z,21.87
2022-10-31T09:53:03.257Z,21.89
2022-10-31T09:54:04.302Z,21.92
2022-10-31T09:55:04.966Z,21.92
2022-10-31T09:56:05.553Z,21.85
2022-10-31T09:57:06.148Z,21.83
2022-10-31T09:58:06.748Z,21.92
2022-10-31T09:59:07.344Z,21.89
2022-10-31T10:00:07.944Z,21.92
2022-10-31T10:01:08.635Z,21.89
2022-10-31T10:02:09.294Z,21.82
2022-10-31T10:03:09.939Z,21.92
2022-10-31T10:04:10.535Z,21.92
2022-10-31T10:05:11.136Z,21.92
2022-10-31T10:06:11.737Z,21.89
2022-10-31T10:07:12.336Z,21.85
2022-10-31T10:08:12.940Z,21.89
2022-10-31T10:09:13.644Z,21.93
2022-10-31T10:10:14.244Z,21.89
2022-10-31T10:11:14.841Z,21.89
2022-10-31T10:12:15.476Z,21.92
2022-10-31T10:13:16.045Z,21.92
2022-10-31T10:14:16.643Z,21.91
2022-10-31T10:15:17.241Z,21.91
2022-10-31T10:16:17.838Z,21.85
2022-10-31T10:17:18.485Z,21.92
2022-10-31T10:18:19.083Z,21.87
2022-10-31T10:19:19.683Z,21.83
2022-10-31T10:20:20.785Z,21.83
2022-10-31T10:21:22.400Z,21.85
2022-10-31T10:22:23.000Z,21.89
2022-10-31T10:23:23.597Z,21.82
2022-10-31T10:24:24.201Z,21.83
2022-10-31T10:25:24.795Z,21.89
2022-10-31T10:26:25.424Z,21.92
2022-10-31T10:27:26.035Z,21.82
2022-10-31T10:28:26.639Z,21.89
2022-10-31T10:29:27.241Z,21.82
2022-10-31T10:30:27.842Z,21.89
2022-10-31T10:31:28.508Z,21.80
2022-10-31T10:32:29.179Z,21.85
2022-10-31T10:33:29.779Z,21.92
2022-10-31T10:34:30.382Z,21.82
2022-10-31T10:35:30.987Z,21.96
2022-10-31T10:36:31.585Z,21.83
2022-10-31T10:37:32.251Z,21.93
2022-10-31T10:38:32.856Z,21.92
2022-10-31T10:39:33.456Z,21.87
2022-10-31T10:40:34.059Z,21.82
2022-10-31T10:41:34.981Z,21.92
2022-10-31T10:42:35.636Z,21.80
2022-10-31T10:43:36.299Z,21.80
2022-10-31T10:44:36.899Z,21.89
2022-10-31T10:45:37.497Z,21.83
2022-10-31T10:46:38.123Z,21.87
2022-10-31T10:47:38.695Z,21.89
2022-10-31T10:48:39.292Z,21.93
2022-10-31T10:49:39.891Z,21.82
2022-10-31T10:50:40.489Z,21.87
2022-10-31T10:52:46.188Z,21.92
2022-10-31T10:53:44.520Z,21.91
2022-10-31T10:54:45.126Z,21.91
2022-10-31T10:55:46.569Z,21.85
2022-10-31T10:56:47.168Z,21.92
2022-10-31T10:57:47.886Z,21.92
2022-10-31T10:58:48.503Z,21.89
2022-10-31T10:59:49.100Z,21.89
2022-10-31T11:00:49.812Z,21.92
2022-10-31T11:01:50.588Z,21.89
2022-10-31T11:02:51.188Z,21.87
2022-10-31T11:03:51.785Z,21.95
2022-10-31T11:04:52.398Z,21.85
2022-10-31T11:05:52.985Z,21.93
2022-10-31T11:06:53.589Z,21.91
2022-10-31T11:07:54.990Z,21.87
2022-10-31T11:08:55.593Z,21.85
2022-10-31T11:09:56.193Z,21.92
2022-10-31T11:10:56.794Z,21.85
2022-10-31T11:11:57.391Z,21.91
2022-10-31T11:12:58.313Z,21.91
2022-10-31T11:13:59.099Z,21.89
2022-10-31T11:14:59.701Z,21.91
2022-10-31T11:16:00.315Z,21.87
2022-10-31T11:17:00.899Z,21.92
2022-10-31T11:18:01.493Z,21.89
2022-10-31T11:19:02.143Z,21.83
2022-10-31T11:20:02.743Z,21.92
2022-10-31T11:21:03.340Z,21.82
2022-10-31T11:22:03.948Z,21.92
2022-10-31T11:23:04.549Z,21.92
2022-10-31T11:24:05.136Z,21.92
2022-10-31T11:25:05.795Z,21.89
2022-10-31T11:26:06.394Z,21.87
2022-10-31T11:27:06.990Z,21.92
2022-10-31T11:28:07.589Z,21.85
2022-10-31T11:29:08.193Z,21.92
2022-10-31T11:30:08.786Z,21.92
2022-10-31T11:31:09.386Z,21.96
2022-10-31T11:32:09.982Z,21.95
2022-10-31T11:33:10.581Z,21.91
2022-10-31T11:34:11.177Z,21.92
2022-10-31T11:35:11.777Z,21.89
2022-10-31T11:36:12.377Z,21.83
2022-10-31T11:37:12.979Z,21.83
2022-10-31T11:38:14.374Z,21.93
2022-10-31T11:39:14.972Z,21.93
2022-10-31T11:40:15.582Z,21.93
2022-10-31T11:41:16.170Z,21.85
2022-10-31T11:42:16.769Z,21.89
2022-10-31T11:43:17.366Z,21.87
2022-10-31T11:44:17.963Z,21.92
2022-10-31T11:45:18.564Z,21.96
2022-10-31T11:46:19.230Z,21.85
2022-10-31T11:47:19.836Z,21.87
2022-10-31T11:48:20.429Z,21.96
2022-10-31T11:49:21.032Z,21.95
2022-10-31T11:50:21.631Z,21.93
2022-10-31T11:51:22.232Z,21.91
2022-10-31T11:52:22.831Z,21.92
2022-10-31T11:53:23.437Z,21.92
2022-10-31T11:54:24.082Z,21.87
2022-10-31T11:55:25.483Z,21.92
2022-10-31T11:56:26.948Z,21.96
2022-10-31T11:57:27.572Z,21.87
2022-10-31T11:58:28.170Z,21.89
2022-10-31T11:59:28.785Z,21.85
2022-10-31T12:00:29.433Z,21.85
2022-10-31T12:01:30.199Z,21.91
2022-10-31T12:02:30.824Z,21.79
2022-10-31T12:03:31.430Z,21.92
2022-10-31T12:04:32.045Z,21.96
2022-10-31T12:05:32.657Z,21.85
2022-10-31T12:06:33.294Z,21.79
2022-10-31T12:07:33.937Z,21.82
2022-10-31T12:08:34.596Z,21.89
2022-10-31T12:09:35.201Z,21.87
2022-10-31T12:10:35.799Z,21.80
2022-10-31T12:11:36.467Z,21.82
2022-10-31T12:12:37.080Z,21.83
2022-10-31T12:13:37.703Z,21.80
2022-10-31T12:14:38.314Z,21.77
2022-10-31T12:15:38.927Z,21.89
2022-10-31T12:16:39.522Z,21.91
2022-10-31T12:17:40.135Z,21.79
2022-10-31T12:18:40.735Z,21.77
2022-10-31T12:19:41.351Z,21.83
2022-10-31T12:20:41.964Z,21.79
2022-10-31T12:21:42.627Z,21.92
2022-10-31T12:22:43.237Z,21.79
2022-10-31T12:23:43.851Z,21.82
2022-10-31T12:24:44.461Z,21.79
2022-10-31T12:25:45.075Z,21.83
2022-10-31T12:26:45.684Z,21.77
2022-10-31T12:27:46.295Z,21.83
2022-10-31T12:28:49.887Z,21.79
2022-10-31T12:29:48.524Z,21.82
2022-10-31T12:30:49.986Z,21.76
2022-10-31T12:31:50.601Z,21.83
2022-10-31T12:32:51.202Z,21.82
2022-10-31T12:33:52.672Z,21.79
2022-10-31T12:34:53.434Z,21.76
2022-10-31T12:35:54.053Z,21.80
2022-10-31T12:36:54.667Z,21.82
2022-10-31T12:37:55.275Z,21.82
2022-10-31T12:38:55.886Z,21.72
2022-10-31T12:39:56.547Z,21.79
2022-10-31T12:40:57.150Z,21.77
2022-10-31T12:41:57.756Z,21.85
2022-10-31T12:42:58.661Z,21.75
2022-10-31T12:43:59.495Z,21.87
2022-10-31T12:45:00.131Z,21.83
2022-10-31T12:46:00.749Z,21.87
2022-10-31T12:47:01.360Z,21.91
2022-10-31T12:48:01.971Z,21.85
2022-10-31T12:49:02.586Z,21.82
2022-10-31T12:50:04.018Z,21.85
2022-10-31T12:51:04.652Z,21.89
2022-10-31T12:52:05.255Z,21.91
2022-10-31T12:53:05.881Z,21.92
2022-10-31T12:54:06.477Z,21.89
2022-10-31T12:55:07.070Z,21.89
2022-10-31T12:56:07.673Z,21.89
2022-10-31T12:57:08.274Z,21.95
2022-10-31T12:58:08.966Z,21.85
2022-10-31T12:59:10.403Z,21.89
2022-10-31T13:00:11.004Z,21.91
2022-10-31T13:01:11.674Z,21.89
2022-10-31T13:02:12.364Z,21.92
2022-10-31T13:03:12.965Z,21.87